sensor_id;sensor_type;location;lat;lon;timestamp;pressure;altitude;pressure_sealevel;temperature;humidity
21234;BME280;10774;42.178;26.578;2023-07-29T00:00:58;99783.94;;;20.07;69.68
21234;BME280;10774;42.178;26.578;2023-07-29T00:03:23;99799.09;;;18.96;75.97
21234;BME280;10774;42.178;26.578;2023-07-29T00:05:49;99794.00;;;18.93;78.77
21234;BME280;10774;42.178;26.578;2023-07-29T00:08:14;99789.47;;;19.20;77.12
21234;BME280;10774;42.178;26.578;2023-07-29T00:10:39;99790.41;;;18.75;79.23
21234;BME280;10774;42.178;26.578;2023-07-29T00:13:05;99791.19;;;18.85;79.87
21234;BME280;10774;42.178;26.578;2023-07-29T00:15:31;99785.94;;;18.56;82.16
21234;BME280;10774;42.178;26.578;2023-07-29T00:17:57;99782.72;;;19.06;81.15
21234;BME280;10774;42.178;26.578;2023-07-29T00:20:23;99784.16;;;19.36;79.81
21234;BME280;10774;42.178;26.578;2023-07-29T00:22:48;99783.69;;;19.23;79.92
21234;BME280;10774;42.178;26.578;2023-07-29T00:25:15;99778.75;;;19.00;81.38
21234;BME280;10774;42.178;26.578;2023-07-29T00:27:42;99779.09;;;19.23;79.87
21234;BME280;10774;42.178;26.578;2023-07-29T00:30:07;99776.25;;;19.25;79.42
21234;BME280;10774;42.178;26.578;2023-07-29T00:32:33;99768.88;;;19.43;78.35
21234;BME280;10774;42.178;26.578;2023-07-29T00:34:58;99755.91;;;19.37;78.25
21234;BME280;10774;42.178;26.578;2023-07-29T00:37:26;99775.78;;;19.55;78.55
21234;BME280;10774;42.178;26.578;2023-07-29T00:39:51;99764.84;;;19.47;79.17
21234;BME280;10774;42.178;26.578;2023-07-29T00:42:17;99754.47;;;19.69;78.63
21234;BME280;10774;42.178;26.578;2023-07-29T00:44:42;99752.47;;;19.79;76.83
21234;BME280;10774;42.178;26.578;2023-07-29T00:47:08;99748.41;;;19.83;74.79
21234;BME280;10774;42.178;26.578;2023-07-29T00:49:33;99742.25;;;19.81;73.80
21234;BME280;10774;42.178;26.578;2023-07-29T00:51:59;99752.38;;;19.89;72.95
21234;BME280;10774;42.178;26.578;2023-07-29T00:54:25;99754.41;;;19.61;74.17
21234;BME280;10774;42.178;26.578;2023-07-29T00:56:50;99744.22;;;19.63;74.51
21234;BME280;10774;42.178;26.578;2023-07-29T00:59:16;99752.59;;;19.69;73.83
21234;BME280;10774;42.178;26.578;2023-07-29T01:01:42;99740.50;;;19.20;75.79
21234;BME280;10774;42.178;26.578;2023-07-29T01:04:07;99744.97;;;19.55;74.92
21234;BME280;10774;42.178;26.578;2023-07-29T01:06:58;99746.28;;;19.51;75.50
21234;BME280;10774;42.178;26.578;2023-07-29T01:12:41;99764.47;;;18.98;85.20
21234;BME280;10774;42.178;26.578;2023-07-29T01:15:22;99762.44;;;18.37;90.54
21234;BME280;10774;42.178;26.578;2023-07-29T01:17:53;99756.41;;;18.16;96.71
21234;BME280;10774;42.178;26.578;2023-07-29T01:20:20;99762.94;;;18.23;97.22
21234;BME280;10774;42.178;26.578;2023-07-29T01:22:46;99755.03;;;17.65;100.00
21234;BME280;10774;42.178;26.578;2023-07-29T01:25:15;99732.44;;;17.08;100.00
21234;BME280;10774;42.178;26.578;2023-07-29T01:27:42;99745.03;;;17.56;100.00
21234;BME280;10774;42.178;26.578;2023-07-29T01:30:08;99756.59;;;17.77;100.00
21234;BME280;10774;42.178;26.578;2023-07-29T01:35:24;99756.38;;;17.51;100.00
21234;BME280;10774;42.178;26.578;2023-07-29T01:38:00;99748.13;;;17.90;100.00
21234;BME280;10774;42.178;26.578;2023-07-29T01:40:27;99743.81;;;17.87;100.00
21234;BME280;10774;42.178;26.578;2023-07-29T01:42:53;99728.06;;;17.54;100.00
21234;BME280;10774;42.178;26.578;2023-07-29T01:45:23;99747.88;;;18.11;100.00
21234;BME280;10774;42.178;26.578;2023-07-29T01:47:49;99751.75;;;18.36;98.34
21234;BME280;10774;42.178;26.578;2023-07-29T01:50:15;99756.78;;;18.48;95.48
21234;BME280;10774;42.178;26.578;2023-07-29T01:52:40;99744.66;;;18.61;93.17
21234;BME280;10774;42.178;26.578;2023-07-29T01:55:06;99750.06;;;18.70;92.03
21234;BME280;10774;42.178;26.578;2023-07-29T01:57:31;99737.50;;;18.69;91.13
21234;BME280;10774;42.178;26.578;2023-07-29T01:59:57;99731.34;;;18.85;89.42
21234;BME280;10774;42.178;26.578;2023-07-29T02:02:22;99734.47;;;18.90;87.39
21234;BME280;10774;42.178;26.578;2023-07-29T02:04:47;99742.72;;;18.98;86.91
21234;BME280;10774;42.178;26.578;2023-07-29T02:07:18;99734.94;;;19.03;85.83
21234;BME280;10774;42.178;26.578;2023-07-29T02:09:44;99739.34;;;19.04;84.82
21234;BME280;10774;42.178;26.578;2023-07-29T02:12:10;99733.28;;;18.93;85.07
21234;BME280;10774;42.178;26.578;2023-07-29T02:14:35;99727.41;;;18.79;84.49
21234;BME280;10774;42.178;26.578;2023-07-29T02:17:01;99738.66;;;18.85;84.41
21234;BME280;10774;42.178;26.578;2023-07-29T02:19:26;99740.81;;;18.81;83.91
21234;BME280;10774;42.178;26.578;2023-07-29T02:21:52;99750.31;;;18.77;84.11
21234;BME280;10774;42.178;26.578;2023-07-29T02:24:17;99750.09;;;18.61;84.13
21234;BME280;10774;42.178;26.578;2023-07-29T02:26:42;99751.13;;;18.42;85.29
21234;BME280;10774;42.178;26.578;2023-07-29T02:29:08;99754.06;;;18.48;85.49
21234;BME280;10774;42.178;26.578;2023-07-29T02:31:33;99755.25;;;18.64;84.88
21234;BME280;10774;42.178;26.578;2023-07-29T02:34:00;99747.78;;;18.66;84.41
21234;BME280;10774;42.178;26.578;2023-07-29T02:36:25;99754.97;;;18.67;84.00
21234;BME280;10774;42.178;26.578;2023-07-29T02:38:50;99760.69;;;18.64;84.46
21234;BME280;10774;42.178;26.578;2023-07-29T02:41:16;99775.59;;;18.60;83.96
21234;BME280;10774;42.178;26.578;2023-07-29T02:43:48;99781.34;;;18.57;84.59
21234;BME280;10774;42.178;26.578;2023-07-29T02:46:14;99775.19;;;18.54;84.70
21234;BME280;10774;42.178;26.578;2023-07-29T02:48:39;99779.56;;;18.65;84.15
21234;BME280;10774;42.178;26.578;2023-07-29T02:51:04;99785.19;;;18.36;85.02
21234;BME280;10774;42.178;26.578;2023-07-29T02:53:30;99778.06;;;17.98;88.16
21234;BME280;10774;42.178;26.578;2023-07-29T02:55:55;99784.97;;;17.92;90.16
21234;BME280;10774;42.178;26.578;2023-07-29T02:58:21;99774.34;;;18.09;89.17
21234;BME280;10774;42.178;26.578;2023-07-29T03:00:46;99779.03;;;18.07;89.60
21234;BME280;10774;42.178;26.578;2023-07-29T03:03:14;99795.91;;;17.73;93.67
21234;BME280;10774;42.178;26.578;2023-07-29T03:05:39;99783.81;;;17.29;99.25
21234;BME280;10774;42.178;26.578;2023-07-29T03:08:05;99805.81;;;17.35;100.00
21234;BME280;10774;42.178;26.578;2023-07-29T03:10:30;99807.09;;;17.31;100.00
21234;BME280;10774;42.178;26.578;2023-07-29T03:12:56;99806.53;;;17.37;100.00
21234;BME280;10774;42.178;26.578;2023-07-29T03:15:26;99800.81;;;17.40;100.00
21234;BME280;10774;42.178;26.578;2023-07-29T03:17:52;99797.34;;;17.48;100.00
21234;BME280;10774;42.178;26.578;2023-07-29T03:20:18;99803.88;;;16.48;100.00
21234;BME280;10774;42.178;26.578;2023-07-29T03:22:44;99805.81;;;17.06;100.00
21234;BME280;10774;42.178;26.578;2023-07-29T03:25:09;99789.22;;;17.38;100.00
21234;BME280;10774;42.178;26.578;2023-07-29T03:27:35;99798.97;;;17.12;100.00
21234;BME280;10774;42.178;26.578;2023-07-29T03:30:03;99807.09;;;17.12;100.00
21234;BME280;10774;42.178;26.578;2023-07-29T03:32:28;99806.53;;;17.08;100.00
21234;BME280;10774;42.178;26.578;2023-07-29T03:34:54;99819.38;;;17.35;100.00
21234;BME280;10774;42.178;26.578;2023-07-29T03:37:20;99813.81;;;17.08;100.00
21234;BME280;10774;42.178;26.578;2023-07-29T03:39:46;99823.81;;;17.17;100.00
21234;BME280;10774;42.178;26.578;2023-07-29T03:42:12;99820.38;;;16.95;100.00
21234;BME280;10774;42.178;26.578;2023-07-29T03:44:37;99826.59;;;16.67;100.00
21234;BME280;10774;42.178;26.578;2023-07-29T03:47:05;99833.41;;;16.52;100.00
21234;BME280;10774;42.178;26.578;2023-07-29T03:49:30;99830.66;;;17.02;100.00
21234;BME280;10774;42.178;26.578;2023-07-29T03:51:56;99827.47;;;17.84;100.00
21234;BME280;10774;42.178;26.578;2023-07-29T03:54:21;99829.75;;;18.16;98.29
21234;BME280;10774;42.178;26.578;2023-07-29T03:56:46;99811.44;;;18.45;94.86
21234;BME280;10774;42.178;26.578;2023-07-29T03:59:12;99831.41;;;18.81;92.62
21234;BME280;10774;42.178;26.578;2023-07-29T04:01:37;99830.19;;;19.12;89.79
21234;BME280;10774;42.178;26.578;2023-07-29T04:04:03;99836.94;;;19.43;87.52
21234;BME280;10774;42.178;26.578;2023-07-29T04:06:28;99833.84;;;19.38;87.07
21234;BME280;10774;42.178;26.578;2023-07-29T04:08:54;99831.88;;;19.48;85.45
21234;BME280;10774;42.178;26.578;2023-07-29T04:11:19;99820.94;;;19.84;83.85
21234;BME280;10774;42.178;26.578;2023-07-29T04:13:45;99815.34;;;20.20;78.86
21234;BME280;10774;42.178;26.578;2023-07-29T04:16:10;99810.56;;;20.48;76.47
21234;BME280;10774;42.178;26.578;2023-07-29T04:18:35;99821.03;;;20.77;73.85
21234;BME280;10774;42.178;26.578;2023-07-29T04:21:01;99809.75;;;20.72;71.01
21234;BME280;10774;42.178;26.578;2023-07-29T04:23:27;99819.69;;;20.81;71.71
21234;BME280;10774;42.178;26.578;2023-07-29T04:25:52;99820.56;;;21.06;70.37
21234;BME280;10774;42.178;26.578;2023-07-29T04:28:18;99812.94;;;21.26;68.80
21234;BME280;10774;42.178;26.578;2023-07-29T04:30:43;99827.28;;;21.36;68.41
21234;BME280;10774;42.178;26.578;2023-07-29T04:33:08;99812.19;;;20.83;70.11
21234;BME280;10774;42.178;26.578;2023-07-29T04:35:34;99801.81;;;20.95;69.78
21234;BME280;10774;42.178;26.578;2023-07-29T04:37:59;99809.59;;;20.31;72.97
21234;BME280;10774;42.178;26.578;2023-07-29T04:40:24;99812.88;;;20.43;74.30
21234;BME280;10774;42.178;26.578;2023-07-29T04:42:51;99806.88;;;20.31;73.38
21234;BME280;10774;42.178;26.578;2023-07-29T04:45:17;99816.63;;;20.92;73.05
21234;BME280;10774;42.178;26.578;2023-07-29T04:47:42;99828.09;;;21.28;69.71
21234;BME280;10774;42.178;26.578;2023-07-29T04:50:08;99804.56;;;21.11;69.68
21234;BME280;10774;42.178;26.578;2023-07-29T04:52:33;99814.56;;;20.78;71.59
21234;BME280;10774;42.178;26.578;2023-07-29T04:54:59;99816.47;;;21.18;71.16
21234;BME280;10774;42.178;26.578;2023-07-29T04:57:24;99806.47;;;21.43;70.01
21234;BME280;10774;42.178;26.578;2023-07-29T04:59:50;99816.19;;;21.37;69.60
21234;BME280;10774;42.178;26.578;2023-07-29T05:02:15;99815.47;;;21.76;69.65
21234;BME280;10774;42.178;26.578;2023-07-29T05:04:40;99824.63;;;22.16;66.19
21234;BME280;10774;42.178;26.578;2023-07-29T05:07:06;99828.31;;;22.39;64.39
21234;BME280;10774;42.178;26.578;2023-07-29T05:09:31;99834.41;;;22.50;64.52
21234;BME280;10774;42.178;26.578;2023-07-29T05:11:57;99839.59;;;22.76;63.71
21234;BME280;10774;42.178;26.578;2023-07-29T05:14:22;99835.41;;;22.96;62.77
21234;BME280;10774;42.178;26.578;2023-07-29T05:16:47;99842.34;;;23.07;61.20
21234;BME280;10774;42.178;26.578;2023-07-29T05:19:13;99842.97;;;22.94;61.59
21234;BME280;10774;42.178;26.578;2023-07-29T05:21:39;99836.94;;;22.59;63.54
21234;BME280;10774;42.178;26.578;2023-07-29T05:24:04;99858.88;;;22.90;62.82
21234;BME280;10774;42.178;26.578;2023-07-29T05:26:30;99857.44;;;23.03;60.93
21234;BME280;10774;42.178;26.578;2023-07-29T05:28:55;99867.81;;;23.15;60.15
21234;BME280;10774;42.178;26.578;2023-07-29T05:31:22;99865.19;;;22.91;59.68
21234;BME280;10774;42.178;26.578;2023-07-29T05:33:48;99876.06;;;23.07;59.06
21234;BME280;10774;42.178;26.578;2023-07-29T05:36:13;99876.06;;;23.07;58.33
21234;BME280;10774;42.178;26.578;2023-07-29T05:38:39;99880.13;;;22.08;60.98
21234;BME280;10774;42.178;26.578;2023-07-29T05:41:04;99875.19;;;22.04;61.72
21234;BME280;10774;42.178;26.578;2023-07-29T05:43:30;99884.31;;;22.60;61.30
21234;BME280;10774;42.178;26.578;2023-07-29T05:45:55;99878.88;;;22.91;60.59
21234;BME280;10774;42.178;26.578;2023-07-29T05:48:21;99885.16;;;23.31;59.30
21234;BME280;10774;42.178;26.578;2023-07-29T05:53:13;99874.38;;;22.11;61.55
21234;BME280;10774;42.178;26.578;2023-07-29T05:55:39;99869.41;;;21.82;63.78
21234;BME280;10774;42.178;26.578;2023-07-29T05:58:04;99867.63;;;22.47;61.60
21234;BME280;10774;42.178;26.578;2023-07-29T06:00:30;99877.25;;;22.65;61.73
21234;BME280;10774;42.178;26.578;2023-07-29T06:02:55;99863.63;;;22.57;60.71
21234;BME280;10774;42.178;26.578;2023-07-29T06:05:20;99870.22;;;23.10;59.46
21234;BME280;10774;42.178;26.578;2023-07-29T06:07:46;99860.13;;;23.11;57.00
21234;BME280;10774;42.178;26.578;2023-07-29T06:10:14;99870.97;;;23.27;56.54
21234;BME280;10774;42.178;26.578;2023-07-29T06:12:42;99850.44;;;21.97;59.53
21234;BME280;10774;42.178;26.578;2023-07-29T06:15:08;99862.75;;;22.09;60.66
21234;BME280;10774;42.178;26.578;2023-07-29T06:17:34;99866.00;;;22.13;60.71
21234;BME280;10774;42.178;26.578;2023-07-29T06:19:59;99866.91;;;22.44;58.21
21234;BME280;10774;42.178;26.578;2023-07-29T06:22:25;99854.19;;;22.68;55.47
21234;BME280;10774;42.178;26.578;2023-07-29T06:24:50;99854.66;;;22.71;57.17
21234;BME280;10774;42.178;26.578;2023-07-29T06:27:15;99866.22;;;23.44;55.10
21234;BME280;10774;42.178;26.578;2023-07-29T06:29:41;99858.03;;;23.82;53.41
21234;BME280;10774;42.178;26.578;2023-07-29T06:32:07;99863.91;;;23.79;53.57
21234;BME280;10774;42.178;26.578;2023-07-29T06:34:32;99853.94;;;24.15;52.78
21234;BME280;10774;42.178;26.578;2023-07-29T06:36:57;99841.66;;;24.41;51.84
21234;BME280;10774;42.178;26.578;2023-07-29T06:39:23;99855.63;;;24.75;51.09
21234;BME280;10774;42.178;26.578;2023-07-29T06:41:48;99854.00;;;24.81;51.78
21234;BME280;10774;42.178;26.578;2023-07-29T06:44:14;99849.28;;;24.31;53.47
21234;BME280;10774;42.178;26.578;2023-07-29T06:46:39;99854.97;;;24.14;54.96
21234;BME280;10774;42.178;26.578;2023-07-29T06:49:05;99841.81;;;24.24;54.08
21234;BME280;10774;42.178;26.578;2023-07-29T06:51:30;99858.72;;;24.36;54.84
21234;BME280;10774;42.178;26.578;2023-07-29T06:53:59;99844.56;;;24.24;54.84
21234;BME280;10774;42.178;26.578;2023-07-29T06:56:24;99848.94;;;24.48;54.93
21234;BME280;10774;42.178;26.578;2023-07-29T06:58:50;99839.38;;;24.74;53.81
21234;BME280;10774;42.178;26.578;2023-07-29T07:01:15;99827.09;;;24.25;55.08
21234;BME280;10774;42.178;26.578;2023-07-29T07:03:41;99833.63;;;24.10;55.87
21234;BME280;10774;42.178;26.578;2023-07-29T07:06:06;99842.41;;;24.64;55.12
21234;BME280;10774;42.178;26.578;2023-07-29T07:08:31;99830.91;;;24.90;54.04
21234;BME280;10774;42.178;26.578;2023-07-29T07:10:57;99824.56;;;24.90;54.02
21234;BME280;10774;42.178;26.578;2023-07-29T07:13:22;99833.72;;;24.97;54.18
21234;BME280;10774;42.178;26.578;2023-07-29T07:15:48;99819.13;;;25.33;53.46
21234;BME280;10774;42.178;26.578;2023-07-29T07:18:13;99824.81;;;25.52;52.99
21234;BME280;10774;42.178;26.578;2023-07-29T07:20:38;99828.78;;;25.28;52.72
21234;BME280;10774;42.178;26.578;2023-07-29T07:23:04;99821.91;;;24.82;54.18
21234;BME280;10774;42.178;26.578;2023-07-29T07:25:31;99822.72;;;24.97;54.10
21234;BME280;10774;42.178;26.578;2023-07-29T07:27:56;99828.41;;;24.95;54.72
21234;BME280;10774;42.178;26.578;2023-07-29T07:30:22;99819.75;;;25.13;51.15
21234;BME280;10774;42.178;26.578;2023-07-29T07:32:47;99813.34;;;25.06;53.20
21234;BME280;10774;42.178;26.578;2023-07-29T07:35:13;99818.28;;;25.32;53.23
21234;BME280;10774;42.178;26.578;2023-07-29T07:37:38;99807.56;;;25.65;52.76
21234;BME280;10774;42.178;26.578;2023-07-29T07:40:04;99818.16;;;25.90;50.34
21234;BME280;10774;42.178;26.578;2023-07-29T07:42:29;99801.94;;;25.73;50.51
21234;BME280;10774;42.178;26.578;2023-07-29T07:44:55;99798.47;;;25.93;49.04
21234;BME280;10774;42.178;26.578;2023-07-29T07:47:20;99818.91;;;26.05;48.09
21234;BME280;10774;42.178;26.578;2023-07-29T07:49:45;99804.16;;;26.19;47.46
21234;BME280;10774;42.178;26.578;2023-07-29T07:52:11;99801.63;;;26.24;46.62
21234;BME280;10774;42.178;26.578;2023-07-29T07:54:36;99800.81;;;26.30;45.02
21234;BME280;10774;42.178;26.578;2023-07-29T07:57:02;99795.69;;;26.55;43.53
21234;BME280;10774;42.178;26.578;2023-07-29T07:59:27;99798.84;;;26.18;44.93
21234;BME280;10774;42.178;26.578;2023-07-29T08:01:52;99792.00;;;26.42;44.66
21234;BME280;10774;42.178;26.578;2023-07-29T08:04:18;99795.09;;;26.73;43.89
21234;BME280;10774;42.178;26.578;2023-07-29T08:06:43;99795.09;;;26.73;43.86
21234;BME280;10774;42.178;26.578;2023-07-29T08:09:09;99798.63;;;27.15;43.64
21234;BME280;10774;42.178;26.578;2023-07-29T08:11:34;99795.50;;;27.31;42.15
21234;BME280;10774;42.178;26.578;2023-07-29T08:14:00;99795.91;;;27.28;40.48
21234;BME280;10774;42.178;26.578;2023-07-29T08:16:25;99788.19;;;26.91;41.06
21234;BME280;10774;42.178;26.578;2023-07-29T08:18:50;99782.53;;;27.12;40.55
21234;BME280;10774;42.178;26.578;2023-07-29T08:21:16;99800.34;;;27.29;41.74
21234;BME280;10774;42.178;26.578;2023-07-29T08:23:41;99788.09;;;27.65;40.28
21234;BME280;10774;42.178;26.578;2023-07-29T08:26:07;99777.88;;;27.99;39.69
21234;BME280;10774;42.178;26.578;2023-07-29T08:28:38;99766.84;;;27.99;39.97
21234;BME280;10774;42.178;26.578;2023-07-29T08:31:04;99759.56;;;28.24;39.23
21234;BME280;10774;42.178;26.578;2023-07-29T08:33:31;99766.75;;;28.32;41.02
21234;BME280;10774;42.178;26.578;2023-07-29T08:35:58;99771.38;;;28.51;37.41
21234;BME280;10774;42.178;26.578;2023-07-29T08:38:24;99767.06;;;28.62;37.39
21234;BME280;10774;42.178;26.578;2023-07-29T08:43:34;99760.38;;;28.25;36.30
21234;BME280;10774;42.178;26.578;2023-07-29T08:46:03;99748.47;;;28.44;37.68
21234;BME280;10774;42.178;26.578;2023-07-29T08:48:40;99748.69;;;28.81;36.86
21234;BME280;10774;42.178;26.578;2023-07-29T08:51:08;99750.88;;;28.72;36.96
21234;BME280;10774;42.178;26.578;2023-07-29T08:53:33;99753.19;;;29.13;35.85
21234;BME280;10774;42.178;26.578;2023-07-29T08:55:59;99741.50;;;29.36;34.78
21234;BME280;10774;42.178;26.578;2023-07-29T08:58:26;99746.59;;;29.39;35.34
21234;BME280;10774;42.178;26.578;2023-07-29T09:00:52;99737.09;;;29.04;34.27
21234;BME280;10774;42.178;26.578;2023-07-29T09:03:17;99740.03;;;29.09;33.68
21234;BME280;10774;42.178;26.578;2023-07-29T09:05:43;99743.91;;;29.58;34.38
21234;BME280;10774;42.178;26.578;2023-07-29T09:08:09;99737.75;;;29.81;32.75
21234;BME280;10774;42.178;26.578;2023-07-29T09:10:36;99733.56;;;29.72;31.50
21234;BME280;10774;42.178;26.578;2023-07-29T09:13:02;99730.72;;;29.60;31.11
21234;BME280;10774;42.178;26.578;2023-07-29T09:15:33;99726.88;;;29.61;31.81
21234;BME280;10774;42.178;26.578;2023-07-29T09:17:59;99732.72;;;30.14;31.42
21234;BME280;10774;42.178;26.578;2023-07-29T09:20:33;99730.75;;;29.78;28.80
21234;BME280;10774;42.178;26.578;2023-07-29T09:22:59;99734.03;;;30.12;30.11
21234;BME280;10774;42.178;26.578;2023-07-29T09:25:29;99728.38;;;30.55;31.90
21234;BME280;10774;42.178;26.578;2023-07-29T09:28:01;99726.72;;;30.17;29.31
21234;BME280;10774;42.178;26.578;2023-07-29T09:30:27;99705.09;;;30.44;30.32
21234;BME280;10774;42.178;26.578;2023-07-29T09:32:59;99719.25;;;30.66;29.34
21234;BME280;10774;42.178;26.578;2023-07-29T09:35:29;99716.16;;;31.05;29.99
21234;BME280;10774;42.178;26.578;2023-07-29T09:37:55;99718.84;;;31.23;31.99
21234;BME280;10774;42.178;26.578;2023-07-29T09:40:20;99708.56;;;31.54;31.69
21234;BME280;10774;42.178;26.578;2023-07-29T09:42:53;99714.44;;;31.69;31.69
21234;BME280;10774;42.178;26.578;2023-07-29T09:45:25;99705.63;;;31.95;31.93
21234;BME280;10774;42.178;26.578;2023-07-29T09:47:52;99686.06;;;32.14;31.63
21234;BME280;10774;42.178;26.578;2023-07-29T09:50:17;99691.06;;;31.88;29.71
21234;BME280;10774;42.178;26.578;2023-07-29T09:52:44;99684.84;;;32.10;30.28
21234;BME280;10774;42.178;26.578;2023-07-29T09:55:13;99685.84;;;31.80;30.64
21234;BME280;10774;42.178;26.578;2023-07-29T09:57:40;99690.09;;;31.71;30.68
21234;BME280;10774;42.178;26.578;2023-07-29T10:00:06;99684.03;;;31.97;30.87
21234;BME280;10774;42.178;26.578;2023-07-29T10:02:37;99664.25;;;31.94;29.95
21234;BME280;10774;42.178;26.578;2023-07-29T10:05:04;99663.47;;;32.22;30.36
21234;BME280;10774;42.178;26.578;2023-07-29T10:07:31;99661.28;;;32.52;28.90
21234;BME280;10774;42.178;26.578;2023-07-29T10:09:57;99665.16;;;32.51;30.01
21234;BME280;10774;42.178;26.578;2023-07-29T10:12:24;99664.44;;;32.56;29.60
21234;BME280;10774;42.178;26.578;2023-07-29T10:14:50;99652.66;;;31.97;29.79
21234;BME280;10774;42.178;26.578;2023-07-29T10:17:16;99652.72;;;31.38;30.26
21234;BME280;10774;42.178;26.578;2023-07-29T10:19:42;99663.88;;;31.20;30.23
21234;BME280;10774;42.178;26.578;2023-07-29T10:22:09;99669.38;;;30.85;30.54
21234;BME280;10774;42.178;26.578;2023-07-29T10:24:38;99656.94;;;30.09;31.38
21234;BME280;10774;42.178;26.578;2023-07-29T10:27:06;99666.75;;;31.25;31.51
21234;BME280;10774;42.178;26.578;2023-07-29T10:29:38;99653.03;;;31.77;29.73
21234;BME280;10774;42.178;26.578;2023-07-29T10:32:04;99665.59;;;31.68;29.43
21234;BME280;10774;42.178;26.578;2023-07-29T10:34:31;99654.25;;;31.58;30.51
21234;BME280;10774;42.178;26.578;2023-07-29T10:36:59;99645.34;;;32.19;29.94
21234;BME280;10774;42.178;26.578;2023-07-29T10:39:25;99639.53;;;31.22;30.61
21234;BME280;10774;42.178;26.578;2023-07-29T10:47:14;99633.88;;;32.16;30.11
21234;BME280;10774;42.178;26.578;2023-07-29T10:49:40;99627.53;;;32.32;29.58
21234;BME280;10774;42.178;26.578;2023-07-29T10:52:06;99639.06;;;32.24;29.65
21234;BME280;10774;42.178;26.578;2023-07-29T10:54:45;99613.22;;;31.83;29.99
21234;BME280;10774;42.178;26.578;2023-07-29T10:57:15;99619.78;;;31.54;30.45
21234;BME280;10774;42.178;26.578;2023-07-29T10:59:42;99613.38;;;32.05;30.41
21234;BME280;10774;42.178;26.578;2023-07-29T11:02:18;99606.91;;;31.99;29.97
21234;BME280;10774;42.178;26.578;2023-07-29T11:04:50;99614.06;;;31.72;30.19
21234;BME280;10774;42.178;26.578;2023-07-29T11:17:56;99607.50;;;32.30;30.13
21234;BME280;10774;42.178;26.578;2023-07-29T11:20:24;99602.91;;;32.64;29.04
21234;BME280;10774;42.178;26.578;2023-07-29T11:22:50;99606.16;;;32.44;27.54
21234;BME280;10774;42.178;26.578;2023-07-29T11:25:17;99602.66;;;32.37;28.62
21234;BME280;10774;42.178;26.578;2023-07-29T11:27:43;99607.19;;;32.15;28.89
21234;BME280;10774;42.178;26.578;2023-07-29T11:30:10;99603.03;;;32.00;28.96
21234;BME280;10774;42.178;26.578;2023-07-29T11:32:37;99596.38;;;32.30;28.48
21234;BME280;10774;42.178;26.578;2023-07-29T11:35:07;99593.19;;;32.67;28.95
21234;BME280;10774;42.178;26.578;2023-07-29T11:37:34;99598.44;;;32.35;28.27
21234;BME280;10774;42.178;26.578;2023-07-29T11:40:00;99577.75;;;32.42;27.89
21234;BME280;10774;42.178;26.578;2023-07-29T11:42:26;99583.50;;;32.52;28.40
21234;BME280;10774;42.178;26.578;2023-07-29T11:44:52;99587.13;;;32.24;28.96
21234;BME280;10774;42.178;26.578;2023-07-29T11:47:17;99579.13;;;32.73;27.69
21234;BME280;10774;42.178;26.578;2023-07-29T11:49:43;99591.03;;;32.86;27.77
21234;BME280;10774;42.178;26.578;2023-07-29T11:52:09;99585.22;;;32.87;27.36
21234;BME280;10774;42.178;26.578;2023-07-29T11:54:36;99565.50;;;33.05;27.11
21234;BME280;10774;42.178;26.578;2023-07-29T11:57:06;99577.19;;;33.41;27.33
21234;BME280;10774;42.178;26.578;2023-07-29T11:59:34;99578.66;;;32.93;27.97
21234;BME280;10774;42.178;26.578;2023-07-29T12:02:14;99576.78;;;32.82;27.49
21234;BME280;10774;42.178;26.578;2023-07-29T12:04:41;99570.59;;;33.47;27.38
21234;BME280;10774;42.178;26.578;2023-07-29T12:07:08;99567.34;;;33.17;27.63
21234;BME280;10774;42.178;26.578;2023-07-29T12:09:35;99561.41;;;33.47;27.44
21234;BME280;10774;42.178;26.578;2023-07-29T12:12:03;99560.94;;;32.83;27.51
21234;BME280;10774;42.178;26.578;2023-07-29T12:14:29;99569.00;;;32.96;27.71
21234;BME280;10774;42.178;26.578;2023-07-29T12:16:54;99552.34;;;33.18;27.68
21234;BME280;10774;42.178;26.578;2023-07-29T12:19:20;99555.22;;;33.23;27.62
21234;BME280;10774;42.178;26.578;2023-07-29T12:21:47;99552.19;;;33.08;27.58
21234;BME280;10774;42.178;26.578;2023-07-29T12:24:13;99540.34;;;33.34;27.20
21234;BME280;10774;42.178;26.578;2023-07-29T12:26:40;99550.63;;;33.50;26.80
21234;BME280;10774;42.178;26.578;2023-07-29T12:29:12;99548.09;;;33.49;27.53
21234;BME280;10774;42.178;26.578;2023-07-29T12:31:38;99549.19;;;32.92;27.00
21234;BME280;10774;42.178;26.578;2023-07-29T12:34:04;99558.34;;;33.10;27.31
21234;BME280;10774;42.178;26.578;2023-07-29T12:36:43;99560.78;;;33.06;27.19
21234;BME280;10774;42.178;26.578;2023-07-29T12:39:19;99559.84;;;32.67;27.24
21234;BME280;10774;42.178;26.578;2023-07-29T12:41:45;99544.97;;;33.07;27.33
21234;BME280;10774;42.178;26.578;2023-07-29T12:44:11;99544.53;;;33.37;26.82
21234;BME280;10774;42.178;26.578;2023-07-29T12:46:36;99541.50;;;33.55;26.39
21234;BME280;10774;42.178;26.578;2023-07-29T12:49:02;99556.38;;;34.10;26.23
21234;BME280;10774;42.178;26.578;2023-07-29T12:51:27;99546.59;;;34.34;25.21
21234;BME280;10774;42.178;26.578;2023-07-29T12:53:53;99552.72;;;34.63;25.38
21234;BME280;10774;42.178;26.578;2023-07-29T12:56:19;99547.28;;;34.46;25.05
21234;BME280;10774;42.178;26.578;2023-07-29T12:58:45;99547.78;;;34.43;25.33
21234;BME280;10774;42.178;26.578;2023-07-29T13:01:13;99547.50;;;34.40;24.86
21234;BME280;10774;42.178;26.578;2023-07-29T13:03:42;99541.69;;;35.10;25.40
21234;BME280;10774;42.178;26.578;2023-07-29T13:06:08;99526.03;;;35.52;24.81
21234;BME280;10774;42.178;26.578;2023-07-29T13:08:34;99538.66;;;35.59;24.94
21234;BME280;10774;42.178;26.578;2023-07-29T13:10:59;99542.47;;;36.11;23.78
21234;BME280;10774;42.178;26.578;2023-07-29T13:13:25;99529.75;;;34.83;24.95